Popsquash, Vermont
Current Conditions -  °F | °C
As of 4:35 AM on Wednesday 26 Nov 2014 (Local Time) from KFSO Reporting Station
Overcast Overcast  
Wind Chill:   Ceiling: 3700
Heat Index:   Visibility: 10mi
Dew Point: -5°   Wind: 0mph
Humidity: 62%   Direction: NA
Pressure: 30.22"   Gusts: NA
Location:  44.9002°N, 73.1493°W
Report Text: KFSO 260935Z AUTO 00000KT 10SM OVC037 02/M05 A3022 RMK AO2 T00161050
Loading
Personal Weather Stations






























Interactive Weather Map New forecast layout! Learn more

10-Day Weather Forecast

Advertisements
Track Severe Weather on mobile